createdAt,value
2018-07-02T00:01:04.268Z,1.90
2018-07-02T00:03:42.176Z,2.05
2018-07-02T00:06:45.022Z,1.70
2018-07-02T00:09:22.001Z,1.40
2018-07-02T00:11:59.571Z,1.70
2018-07-02T00:14:37.621Z,1.60
2018-07-02T00:17:14.790Z,1.45
2018-07-02T00:19:52.252Z,1.45
2018-07-02T00:22:29.555Z,1.92
2018-07-02T00:25:06.128Z,1.60
2018-07-02T00:27:43.044Z,1.67
2018-07-02T00:30:20.843Z,1.75
2018-07-02T00:32:57.980Z,1.75
2018-07-02T00:35:35.189Z,1.40
2018-07-02T00:38:13.202Z,1.35
2018-07-02T00:40:49.629Z,1.57
2018-07-02T00:43:27.265Z,1.70
2018-07-02T00:46:06.825Z,1.57
2018-07-02T00:48:44.584Z,1.62
2018-07-02T00:51:22.229Z,1.40
2018-07-02T00:53:58.489Z,1.40
2018-07-02T00:56:35.152Z,1.30
2018-07-02T00:59:13.872Z,1.62
2018-07-02T01:01:51.971Z,1.80
2018-07-02T01:04:28.942Z,1.47
2018-07-02T01:07:06.742Z,1.27
2018-07-02T01:09:45.856Z,1.22
2018-07-02T01:12:22.331Z,1.37
2018-07-02T01:15:00.957Z,1.70
2018-07-02T01:17:38.957Z,1.30
2018-07-02T01:20:16.030Z,1.52
2018-07-02T01:22:53.924Z,1.40
2018-07-02T01:25:31.296Z,1.62
2018-07-02T01:28:09.942Z,1.50
2018-07-02T01:30:46.586Z,1.50
2018-07-02T01:33:25.403Z,1.65
2018-07-02T01:36:03.862Z,1.30
2018-07-02T01:38:41.323Z,1.70
2018-07-02T01:41:19.944Z,1.52
2018-07-02T01:43:57.583Z,1.70
2018-07-02T01:46:35.999Z,1.50
2018-07-02T01:49:14.183Z,1.42
2018-07-02T01:51:52.236Z,1.52
2018-07-02T01:54:28.905Z,1.47
2018-07-02T01:57:07.569Z,1.62
2018-07-02T01:59:44.456Z,1.50
2018-07-02T02:02:22.972Z,1.67
2018-07-02T02:04:59.596Z,1.67
2018-07-02T02:07:36.100Z,1.80
2018-07-02T02:10:13.196Z,1.37
2018-07-02T02:12:50.579Z,1.50
2018-07-02T02:15:29.389Z,1.70
2018-07-02T02:18:06.679Z,1.75
2018-07-02T02:20:43.454Z,1.77
2018-07-02T02:23:21.843Z,1.90
2018-07-02T02:25:58.821Z,2.20
2018-07-02T02:28:35.617Z,1.65
2018-07-02T02:31:12.229Z,1.90
2018-07-02T02:33:50.201Z,2.10
2018-07-02T02:36:28.093Z,3.02
2018-07-02T02:39:06.316Z,2.72
2018-07-02T02:41:42.856Z,2.50
2018-07-02T02:44:20.300Z,2.58
2018-07-02T02:46:56.256Z,2.47
2018-07-02T02:49:33.609Z,2.20
2018-07-02T02:52:10.045Z,2.27
2018-07-02T02:54:46.906Z,2.00
2018-07-02T02:57:26.172Z,2.22
2018-07-02T03:00:02.814Z,2.50
2018-07-02T03:02:41.410Z,2.30
2018-07-02T03:05:19.416Z,2.05
2018-07-02T03:07:56.673Z,2.50
2018-07-02T03:10:33.436Z,2.60
2018-07-02T03:13:10.627Z,2.45
2018-07-02T03:15:47.894Z,2.42
2018-07-02T03:18:24.657Z,2.75
2018-07-02T03:21:01.880Z,2.17
2018-07-02T03:23:41.862Z,2.87
2018-07-02T03:26:20.414Z,2.80
2018-07-02T03:28:58.678Z,3.10
2018-07-02T03:31:35.434Z,2.98
2018-07-02T03:34:12.296Z,3.55
2018-07-02T03:36:49.312Z,3.67
2018-07-02T03:39:26.242Z,2.72
2018-07-02T03:42:03.025Z,2.10
2018-07-02T03:44:40.192Z,2.17
2018-07-02T03:47:17.840Z,2.05
2018-07-02T03:49:57.001Z,1.70
2018-07-02T03:52:33.005Z,1.70
2018-07-02T03:55:09.304Z,2.17
2018-07-02T03:57:45.563Z,2.30
2018-07-02T04:00:22.772Z,2.00
2018-07-02T04:03:01.041Z,1.70
2018-07-02T04:05:39.645Z,2.35
2018-07-02T04:08:18.585Z,1.95
2018-07-02T04:10:55.711Z,2.00
2018-07-02T04:13:32.941Z,1.80
2018-07-02T04:16:10.219Z,2.02
2018-07-02T04:18:48.504Z,1.80
2018-07-02T04:21:26.674Z,2.25
2018-07-02T04:24:04.593Z,1.82
2018-07-02T04:26:43.698Z,2.00
2018-07-02T04:29:20.804Z,1.77
2018-07-02T04:32:04.710Z,2.00
2018-07-02T04:34:41.915Z,1.98
2018-07-02T04:37:20.485Z,1.85
2018-07-02T04:39:58.345Z,1.98
2018-07-02T04:42:37.036Z,1.90
2018-07-02T04:45:14.186Z,2.33
2018-07-02T04:47:50.996Z,2.10
2018-07-02T04:50:30.209Z,2.20
2018-07-02T04:53:07.740Z,2.10
2018-07-02T04:55:44.467Z,2.22
2018-07-02T04:58:25.326Z,2.05
2018-07-02T05:01:06.090Z,2.25
2018-07-02T05:03:44.576Z,2.10
2018-07-02T05:06:21.392Z,2.77
2018-07-02T05:08:57.788Z,2.20
2018-07-02T05:11:35.100Z,2.20
2018-07-02T05:14:12.789Z,2.17
2018-07-02T05:16:49.745Z,2.37
2018-07-02T05:19:26.737Z,2.37
2018-07-02T05:22:03.657Z,2.52
2018-07-02T05:24:40.082Z,2.13
2018-07-02T05:27:18.667Z,2.50
2018-07-02T05:29:55.636Z,2.40
2018-07-02T05:32:33.796Z,2.20
2018-07-02T05:35:12.048Z,2.37
2018-07-02T05:37:49.174Z,2.53
2018-07-02T05:40:26.604Z,2.70
2018-07-02T05:43:03.021Z,2.40
2018-07-02T05:45:41.400Z,2.30
2018-07-02T05:48:20.045Z,2.60
2018-07-02T05:51:00.021Z,2.80
2018-07-02T05:53:37.798Z,2.27
2018-07-02T05:56:15.429Z,2.70
2018-07-02T05:58:52.829Z,2.50
2018-07-02T06:01:30.634Z,2.53
2018-07-02T06:04:07.197Z,2.17
2018-07-02T06:06:44.744Z,2.60
2018-07-02T06:09:23.740Z,2.60
2018-07-02T06:12:01.238Z,2.43
2018-07-02T06:14:38.607Z,2.30
2018-07-02T06:17:17.288Z,2.50
2018-07-02T06:19:55.477Z,2.50
2018-07-02T06:22:32.841Z,2.63
2018-07-02T06:25:11.434Z,2.30
2018-07-02T06:27:49.072Z,2.57
2018-07-02T06:30:27.156Z,2.13
2018-07-02T06:33:04.609Z,2.40
2018-07-02T06:35:41.192Z,2.50
2018-07-02T06:38:19.219Z,2.50
2018-07-02T06:40:55.539Z,2.30
2018-07-02T06:43:32.694Z,2.83
2018-07-02T06:46:10.457Z,2.10
2018-07-02T06:48:47.457Z,2.20
2018-07-02T06:51:24.928Z,2.27
2018-07-02T06:54:01.701Z,2.30
2018-07-02T06:56:38.291Z,1.87
2018-07-02T06:59:16.597Z,2.20
2018-07-02T07:01:54.730Z,2.20
2018-07-02T07:04:32.130Z,1.90
2018-07-02T07:07:10.765Z,2.30
2018-07-02T07:09:47.750Z,2.77
2018-07-02T07:12:24.685Z,2.13
2018-07-02T07:15:02.373Z,2.43
2018-07-02T07:17:39.914Z,2.47
2018-07-02T07:20:17.370Z,1.87
2018-07-02T07:22:54.707Z,2.37
2018-07-02T07:25:31.919Z,2.17
2018-07-02T07:28:09.800Z,2.00
2018-07-02T07:30:47.004Z,1.60
2018-07-02T07:33:24.909Z,1.67
2018-07-02T07:36:03.821Z,1.87
2018-07-02T07:38:42.284Z,1.70
2018-07-02T07:41:19.818Z,1.57
2018-07-02T07:43:56.989Z,2.10
2018-07-02T07:46:34.983Z,6.53
2018-07-02T07:49:11.577Z,2.50
2018-07-02T07:51:49.065Z,4.53
2018-07-02T07:54:26.957Z,1.10
2018-07-02T07:57:05.725Z,1.10
2018-07-02T07:59:42.983Z,1.20
2018-07-02T08:02:21.214Z,1.23
2018-07-02T08:04:58.829Z,0.80
2018-07-02T08:07:35.785Z,0.70
2018-07-02T08:10:13.881Z,0.90
2018-07-02T08:12:51.780Z,0.87
2018-07-02T08:15:28.454Z,0.90
2018-07-02T08:18:06.827Z,0.80
2018-07-02T08:20:43.309Z,1.10
2018-07-02T08:23:22.321Z,1.17
2018-07-02T08:25:59.088Z,0.80
2018-07-02T08:28:36.028Z,1.07
2018-07-02T08:31:13.994Z,0.83
2018-07-02T08:33:51.291Z,0.63
2018-07-02T08:36:28.227Z,0.80
2018-07-02T08:39:09.691Z,0.70
2018-07-02T08:41:47.609Z,1.00
2018-07-02T08:44:24.530Z,0.87
2018-07-02T08:47:01.422Z,1.07
2018-07-02T08:49:39.324Z,0.87
2018-07-02T08:52:17.673Z,0.80
2018-07-02T08:54:56.235Z,0.80
2018-07-02T08:57:34.805Z,1.00
2018-07-02T09:00:13.083Z,0.97
2018-07-02T09:02:51.701Z,0.70
2018-07-02T09:05:30.420Z,0.90
2018-07-02T09:08:06.830Z,0.80
2018-07-02T09:10:44.937Z,0.87
2018-07-02T09:13:22.761Z,0.93
2018-07-02T09:16:01.106Z,0.70
2018-07-02T09:18:39.019Z,0.60
2018-07-02T09:21:17.096Z,0.90
2018-07-02T09:23:55.773Z,0.90
2018-07-02T09:26:33.892Z,0.70
2018-07-02T09:29:10.309Z,0.80
2018-07-02T09:31:47.877Z,0.80
2018-07-02T09:34:26.017Z,0.80
2018-07-02T09:37:03.772Z,0.70
2018-07-02T09:39:41.865Z,0.70
2018-07-02T09:42:19.407Z,0.90
2018-07-02T09:44:57.259Z,0.70
2018-07-02T09:47:35.387Z,1.07
2018-07-02T09:50:14.064Z,0.67
2018-07-02T09:52:51.533Z,0.70
2018-07-02T09:55:28.883Z,0.87
2018-07-02T09:58:06.971Z,0.70
2018-07-02T10:00:43.938Z,1.10
2018-07-02T10:03:21.675Z,0.60
2018-07-02T10:05:58.569Z,0.67
2018-07-02T10:08:36.573Z,0.60
2018-07-02T10:11:13.611Z,0.70
2018-07-02T10:13:50.668Z,0.80
2018-07-02T10:16:28.490Z,0.87
2018-07-02T10:19:08.664Z,0.77
2018-07-02T10:21:49.906Z,0.80
2018-07-02T10:24:32.118Z,0.70
2018-07-02T10:27:17.199Z,0.80
2018-07-02T10:29:57.116Z,0.67
2018-07-02T10:32:36.576Z,7.70
2018-07-02T10:35:14.809Z,0.93
2018-07-02T10:37:53.432Z,0.80
2018-07-02T10:40:30.965Z,0.63
2018-07-02T10:43:09.412Z,0.83
2018-07-02T10:45:48.346Z,0.80
2018-07-02T10:48:27.092Z,0.53
2018-07-02T10:51:03.872Z,0.60
2018-07-02T10:53:41.331Z,0.67
2018-07-02T10:56:19.014Z,0.70
2018-07-02T10:58:57.267Z,0.70
2018-07-02T11:01:34.128Z,0.80
2018-07-02T11:04:12.568Z,0.80
2018-07-02T11:06:48.576Z,0.53
2018-07-02T11:09:25.553Z,0.73
2018-07-02T11:12:03.188Z,0.70
2018-07-02T11:14:41.534Z,0.70
2018-07-02T11:17:18.941Z,0.93
2018-07-02T11:19:57.372Z,0.90
2018-07-02T11:22:33.562Z,0.73
2018-07-02T11:25:11.548Z,0.70
2018-07-02T11:27:49.965Z,0.70
2018-07-02T11:30:28.525Z,0.67
2018-07-02T11:33:06.373Z,0.70
2018-07-02T11:35:43.303Z,0.83
2018-07-02T11:38:21.026Z,0.67
2018-07-02T11:40:57.394Z,1.20
2018-07-02T11:43:33.699Z,0.80
2018-07-02T11:46:11.860Z,0.50
2018-07-02T11:48:48.888Z,0.93
2018-07-02T11:51:27.204Z,0.50
2018-07-02T11:54:05.830Z,0.70
2018-07-02T11:56:43.592Z,0.60
2018-07-02T11:59:22.037Z,0.70
2018-07-02T12:02:01.266Z,0.70
2018-07-02T12:04:39.336Z,0.70
2018-07-02T12:07:16.098Z,1.00
2018-07-02T12:09:52.233Z,0.63
2018-07-02T12:12:31.327Z,0.77
2018-07-02T12:15:07.865Z,0.80
2018-07-02T12:17:47.111Z,0.70
2018-07-02T12:20:24.836Z,0.70
2018-07-02T12:23:02.241Z,0.60
2018-07-02T12:25:40.812Z,0.50
2018-07-02T12:28:18.820Z,0.50
2018-07-02T12:30:55.635Z,0.60
2018-07-02T12:33:32.494Z,0.70
2018-07-02T12:36:08.821Z,0.50
2018-07-02T12:38:45.955Z,0.60
2018-07-02T12:41:22.269Z,0.90
2018-07-02T12:44:00.139Z,0.60
2018-07-02T12:46:38.817Z,0.40
2018-07-02T12:49:17.561Z,0.70
2018-07-02T12:51:56.271Z,0.77
2018-07-02T12:54:34.551Z,0.50
2018-07-02T12:57:11.216Z,0.60
2018-07-02T12:59:48.251Z,0.70
2018-07-02T13:02:26.294Z,0.90
2018-07-02T13:05:03.962Z,0.70
2018-07-02T13:07:40.985Z,0.60
2018-07-02T13:10:18.659Z,0.70
2018-07-02T13:12:55.885Z,0.60
2018-07-02T13:15:31.850Z,0.80
2018-07-02T13:18:08.237Z,0.60
2018-07-02T13:20:46.041Z,0.93
2018-07-02T13:23:23.765Z,0.80
2018-07-02T13:26:01.488Z,0.70
2018-07-02T13:28:38.025Z,0.60
2018-07-02T13:31:16.345Z,0.50
2018-07-02T13:33:54.908Z,0.60
2018-07-02T13:36:32.752Z,0.70
2018-07-02T13:39:10.686Z,0.70
2018-07-02T13:41:49.402Z,0.60
2018-07-02T13:44:27.810Z,0.50
2018-07-02T13:47:05.181Z,0.60
2018-07-02T13:49:42.815Z,1.17
2018-07-02T13:52:20.503Z,0.60
2018-07-02T13:54:58.812Z,0.63
2018-07-02T13:57:36.515Z,0.50
2018-07-02T14:00:13.345Z,0.80
2018-07-02T14:02:50.745Z,0.60
2018-07-02T14:05:27.159Z,0.70
2018-07-02T14:08:05.424Z,0.63
2018-07-02T14:10:43.510Z,0.50
2018-07-02T14:13:20.594Z,0.70
2018-07-02T14:15:59.527Z,0.57
2018-07-02T14:18:36.776Z,0.70
2018-07-02T14:21:14.704Z,0.77
2018-07-02T14:23:51.758Z,0.60
2018-07-02T14:26:29.991Z,0.77
2018-07-02T14:29:08.977Z,0.60
2018-07-02T14:31:47.748Z,0.60
2018-07-02T14:34:24.581Z,0.50
2018-07-02T14:37:02.122Z,0.50
2018-07-02T14:39:39.479Z,0.60
2018-07-02T14:42:16.874Z,0.57
2018-07-02T14:44:54.401Z,0.73
2018-07-02T14:47:38.930Z,0.70
2018-07-02T14:50:15.771Z,0.70
2018-07-02T14:52:52.628Z,0.60
2018-07-02T14:55:30.025Z,0.53
2018-07-02T14:58:08.159Z,0.93
2018-07-02T15:00:45.490Z,0.60
2018-07-02T15:03:23.613Z,0.60
2018-07-02T15:06:01.589Z,0.80
2018-07-02T15:08:39.345Z,0.50
2018-07-02T15:11:16.363Z,0.80
2018-07-02T15:13:53.584Z,1.03
2018-07-02T15:16:30.304Z,1.90
2018-07-02T15:19:07.265Z,0.70
2018-07-02T15:21:43.916Z,0.70
2018-07-02T15:24:20.788Z,0.77
2018-07-02T15:26:57.769Z,0.70
2018-07-02T15:29:34.306Z,0.70
2018-07-02T15:32:12.033Z,0.70
2018-07-02T15:34:49.468Z,0.60
2018-07-02T15:37:27.619Z,0.60
2018-07-02T15:40:06.463Z,0.70
2018-07-02T15:42:43.823Z,0.77
2018-07-02T15:45:21.780Z,0.70
2018-07-02T15:47:59.290Z,0.60
2018-07-02T15:50:37.551Z,0.90
2018-07-02T15:53:16.795Z,0.90
2018-07-02T15:55:53.525Z,0.80
2018-07-02T15:58:31.995Z,0.70
2018-07-02T16:01:10.124Z,0.83
2018-07-02T16:03:48.626Z,1.23
2018-07-02T16:06:25.965Z,1.10
2018-07-02T16:09:03.862Z,0.80
2018-07-02T16:11:42.124Z,0.70
2018-07-02T16:14:19.364Z,0.53
2018-07-02T16:16:56.385Z,0.67
2018-07-02T16:19:34.317Z,0.50
2018-07-02T16:22:11.643Z,0.70
2018-07-02T16:24:50.271Z,0.50
2018-07-02T16:27:26.729Z,0.70
2018-07-02T16:30:07.242Z,0.80
2018-07-02T16:32:44.529Z,0.97
2018-07-02T16:35:23.059Z,0.90
2018-07-02T16:38:05.903Z,0.70
2018-07-02T16:40:43.113Z,0.73
2018-07-02T16:43:20.988Z,0.70
2018-07-02T16:46:01.844Z,0.90
2018-07-02T16:48:38.463Z,0.93
2018-07-02T16:51:17.884Z,1.03
2018-07-02T16:53:54.591Z,0.87
2018-07-02T16:56:32.353Z,0.60
2018-07-02T16:59:10.801Z,1.20
2018-07-02T17:01:48.318Z,0.70
2018-07-02T17:04:25.500Z,0.60
2018-07-02T17:07:02.633Z,0.63
2018-07-02T17:09:38.558Z,0.80
2018-07-02T17:12:15.625Z,0.70
2018-07-02T17:14:52.256Z,0.50
2018-07-02T17:17:28.223Z,0.83
2018-07-02T17:20:05.466Z,0.80
2018-07-02T17:22:43.104Z,0.80
2018-07-02T17:25:18.716Z,0.87
2018-07-02T17:27:57.018Z,1.07
2018-07-02T17:30:35.376Z,1.20
2018-07-02T17:33:11.577Z,1.30
2018-07-02T17:35:48.184Z,1.03
2018-07-02T17:38:25.989Z,0.60
2018-07-02T17:41:02.200Z,0.97
2018-07-02T17:43:38.476Z,0.97
2018-07-02T17:46:17.727Z,0.63
2018-07-02T17:48:55.054Z,0.70
2018-07-02T17:51:34.047Z,0.80
2018-07-02T17:54:11.218Z,0.90
2018-07-02T17:56:48.621Z,1.07
2018-07-02T17:59:25.843Z,0.87
2018-07-02T18:02:02.432Z,0.90
2018-07-02T18:04:39.592Z,1.00
2018-07-02T18:07:17.911Z,1.10
2018-07-02T18:09:55.283Z,0.80
2018-07-02T18:12:31.718Z,1.10
2018-07-02T18:15:08.317Z,1.00
2018-07-02T18:17:45.468Z,0.90
2018-07-02T18:20:23.633Z,1.00
2018-07-02T18:23:01.508Z,0.70
2018-07-02T18:25:40.136Z,0.80
2018-07-02T18:28:16.675Z,1.10
2018-07-02T18:30:53.028Z,0.80
2018-07-02T18:33:30.041Z,0.90
2018-07-02T18:36:07.408Z,1.03
2018-07-02T18:38:43.701Z,1.10
2018-07-02T18:41:21.560Z,0.93
2018-07-02T18:43:59.397Z,1.40
2018-07-02T18:46:37.417Z,1.20
2018-07-02T18:49:14.920Z,1.40
2018-07-02T18:51:54.566Z,1.40
2018-07-02T18:54:33.493Z,1.37
2018-07-02T18:57:14.328Z,1.20
2018-07-02T18:59:51.199Z,1.47
2018-07-02T19:02:29.040Z,1.50
2018-07-02T19:05:07.587Z,1.57
2018-07-02T19:07:46.211Z,1.73
2018-07-02T19:10:23.288Z,1.67
2018-07-02T19:13:01.339Z,1.50
2018-07-02T19:15:40.370Z,2.10
2018-07-02T19:18:17.092Z,1.80
2018-07-02T19:20:55.188Z,1.67
2018-07-02T19:23:35.705Z,1.97
2018-07-02T19:26:14.563Z,2.30
2018-07-02T19:28:51.330Z,1.97
2018-07-02T19:31:28.448Z,2.17
2018-07-02T19:34:07.230Z,2.50
2018-07-02T19:36:44.855Z,2.30
2018-07-02T19:39:20.929Z,2.13
2018-07-02T19:41:57.413Z,2.40
2018-07-02T19:44:34.150Z,2.00
2018-07-02T19:47:12.541Z,2.00
2018-07-02T19:49:51.479Z,2.33
2018-07-02T19:52:28.663Z,2.50
2018-07-02T19:55:07.645Z,3.03
2018-07-02T19:57:44.434Z,2.80
2018-07-02T20:00:23.832Z,2.63
2018-07-02T20:03:03.615Z,2.80
2018-07-02T20:05:41.621Z,3.17
2018-07-02T20:08:19.150Z,3.30
2018-07-02T20:11:00.838Z,3.17
2018-07-02T20:13:38.915Z,3.20
2018-07-02T20:16:17.366Z,2.73
2018-07-02T20:18:54.130Z,3.37
2018-07-02T20:21:33.876Z,3.33
2018-07-02T20:24:10.553Z,3.10
2018-07-02T20:26:47.770Z,3.40
2018-07-02T20:29:24.309Z,3.00
2018-07-02T20:32:02.214Z,3.10
2018-07-02T20:34:40.744Z,3.23
2018-07-02T20:37:18.257Z,2.40
2018-07-02T20:39:59.640Z,2.63
2018-07-02T20:42:39.030Z,2.50
2018-07-02T20:45:17.671Z,2.60
2018-07-02T20:47:56.855Z,2.30
2018-07-02T20:50:33.636Z,2.10
2018-07-02T20:53:11.665Z,2.57
2018-07-02T20:55:55.152Z,2.37
2018-07-02T20:58:33.455Z,2.50
2018-07-02T21:01:11.807Z,2.73
2018-07-02T21:03:51.231Z,2.20
2018-07-02T21:06:29.386Z,1.70
2018-07-02T21:09:09.593Z,2.03
2018-07-02T21:11:45.637Z,2.40
2018-07-02T21:14:23.721Z,2.03
2018-07-02T21:17:00.368Z,2.73
2018-07-02T21:19:36.941Z,2.47
2018-07-02T21:22:13.243Z,2.13
2018-07-02T21:24:49.734Z,1.97
2018-07-02T21:27:26.081Z,1.87
2018-07-02T21:30:02.693Z,2.17
2018-07-02T21:32:39.324Z,2.03
2018-07-02T21:35:16.168Z,2.50
2018-07-02T21:38:00.144Z,2.37
2018-07-02T21:40:37.273Z,2.13
2018-07-02T21:43:15.282Z,2.53
2018-07-02T21:45:52.974Z,2.30
2018-07-02T21:48:30.829Z,2.50
2018-07-02T21:51:08.328Z,1.83
2018-07-02T21:53:45.884Z,1.77
2018-07-02T21:56:23.650Z,2.00
2018-07-02T21:59:01.057Z,1.67
2018-07-02T22:01:38.243Z,1.87
2018-07-02T22:04:16.437Z,2.27
2018-07-02T22:06:53.045Z,2.00
2018-07-02T22:09:30.887Z,2.33
2018-07-02T22:12:08.072Z,2.20
2018-07-02T22:14:44.678Z,2.00
2018-07-02T22:17:21.847Z,2.00
2018-07-02T22:19:57.966Z,2.07
2018-07-02T22:22:34.538Z,1.60
2018-07-02T22:25:11.825Z,1.57
2018-07-02T22:27:48.342Z,1.33
2018-07-02T22:30:26.585Z,1.20
2018-07-02T22:33:03.952Z,1.57
2018-07-02T22:35:40.944Z,1.33
2018-07-02T22:38:18.741Z,1.30
2018-07-02T22:40:55.385Z,1.33
2018-07-02T22:43:31.535Z,1.50
2018-07-02T22:46:08.203Z,1.10
2018-07-02T22:48:45.279Z,1.57
2018-07-02T22:51:24.090Z,1.67
2018-07-02T22:54:01.017Z,1.53
2018-07-02T22:56:38.466Z,1.40
2018-07-02T22:59:16.590Z,1.43
2018-07-02T23:01:55.305Z,1.50
2018-07-02T23:04:32.172Z,1.50
2018-07-02T23:07:09.317Z,1.30
2018-07-02T23:09:46.945Z,1.70
2018-07-02T23:12:24.302Z,1.03
2018-07-02T23:15:01.346Z,1.30
2018-07-02T23:17:38.045Z,1.40
2018-07-02T23:20:15.498Z,1.20
2018-07-02T23:23:01.575Z,1.53
2018-07-02T23:25:38.828Z,1.40
2018-07-02T23:28:16.150Z,1.30
2018-07-02T23:30:54.245Z,1.20
2018-07-02T23:33:31.384Z,1.50
2018-07-02T23:36:07.967Z,1.37
2018-07-02T23:38:45.418Z,1.33
2018-07-02T23:41:22.661Z,1.37
2018-07-02T23:43:59.304Z,1.10
2018-07-02T23:46:36.685Z,1.40
2018-07-02T23:49:13.400Z,1.20
2018-07-02T23:51:51.276Z,1.12
2018-07-02T23:54:27.305Z,1.20
2018-07-02T23:57:05.412Z,1.13
2018-07-02T23:59:41.336Z,1.30
